createdAt,value
2023-03-12T00:01:42.700Z,6.10
2023-03-12T00:04:15.420Z,6.50
2023-03-12T00:06:53.660Z,7.43
2023-03-12T00:09:26.042Z,6.57
2023-03-12T00:11:58.986Z,6.43
2023-03-12T00:14:28.513Z,6.40
2023-03-12T00:16:58.035Z,7.03
2023-03-12T00:19:28.078Z,6.50
2023-03-12T00:22:00.630Z,10.50
2023-03-12T00:24:29.743Z,6.97
2023-03-12T00:27:03.996Z,6.50
2023-03-12T00:29:37.199Z,6.43
2023-03-12T00:32:12.061Z,6.40
2023-03-12T00:34:43.675Z,8.87
2023-03-12T00:37:13.146Z,5.97
2023-03-12T00:39:42.415Z,5.87
2023-03-12T00:42:15.980Z,6.63
2023-03-12T00:44:45.626Z,6.80
2023-03-12T00:47:17.294Z,7.87
2023-03-12T00:49:51.044Z,5.53
2023-03-12T00:52:20.228Z,7.20
2023-03-12T00:54:49.427Z,6.97
2023-03-12T00:57:20.090Z,6.73
2023-03-12T00:59:51.363Z,6.10
2023-03-12T01:02:20.499Z,6.20
2023-03-12T01:04:49.904Z,8.30
2023-03-12T01:07:21.642Z,8.23
2023-03-12T01:09:50.726Z,6.57
2023-03-12T01:12:21.367Z,6.80
2023-03-12T01:14:56.089Z,6.70
2023-03-12T01:17:25.124Z,6.87
2023-03-12T01:19:54.462Z,7.40
2023-03-12T01:22:26.068Z,6.60
2023-03-12T01:24:55.358Z,8.97
2023-03-12T01:27:26.131Z,6.73
2023-03-12T01:29:55.931Z,12.63
2023-03-12T01:32:29.824Z,6.37
2023-03-12T01:35:00.550Z,7.60
2023-03-12T01:37:30.392Z,6.57
2023-03-12T01:40:00.010Z,7.20
2023-03-12T01:42:30.763Z,7.67
2023-03-12T01:45:03.442Z,7.67
2023-03-12T01:47:33.953Z,6.80
2023-03-12T01:50:04.765Z,8.23
2023-03-12T01:52:38.890Z,6.60
2023-03-12T01:55:12.010Z,7.20
2023-03-12T01:57:49.380Z,6.63
2023-03-12T02:00:21.902Z,7.70
2023-03-12T02:02:56.376Z,7.43
2023-03-12T02:05:31.990Z,7.13
2023-03-12T02:08:02.055Z,7.00
2023-03-12T02:10:33.807Z,6.87
2023-03-12T02:13:08.039Z,6.53
2023-03-12T02:15:39.052Z,7.77
2023-03-12T02:18:13.003Z,7.50
2023-03-12T02:20:49.879Z,6.50
2023-03-12T02:23:26.226Z,6.60
2023-03-12T02:25:58.751Z,7.90
2023-03-12T02:28:31.532Z,6.50
2023-03-12T02:31:04.434Z,7.10
2023-03-12T02:33:34.747Z,6.13
2023-03-12T02:36:07.670Z,7.83
2023-03-12T02:39:25.829Z,6.73
2023-03-12T02:42:21.746Z,6.33
2023-03-12T02:44:52.374Z,6.23
2023-03-12T02:48:08.022Z,6.30
2023-03-12T02:51:00.970Z,7.67
2023-03-12T02:54:15.435Z,7.83
2023-03-12T02:57:31.142Z,6.83
2023-03-12T03:00:45.334Z,7.93
2023-03-12T03:03:59.849Z,5.97
2023-03-12T03:07:15.053Z,6.53
2023-03-12T03:10:29.525Z,6.13
2023-03-12T03:13:46.657Z,8.47
2023-03-12T03:17:02.263Z,6.60
2023-03-12T03:20:18.641Z,8.10
2023-03-12T03:23:35.712Z,8.97
2023-03-12T03:26:53.295Z,6.37
2023-03-12T03:30:12.316Z,7.67
2023-03-12T03:33:30.120Z,6.40
2023-03-12T03:36:15.088Z,6.53
2023-03-12T03:39:07.950Z,9.07
2023-03-12T03:41:46.561Z,7.27
2023-03-12T03:44:44.638Z,7.00
2023-03-12T03:47:19.522Z,7.53
2023-03-12T03:49:51.741Z,8.43
2023-03-12T03:52:22.695Z,8.50
2023-03-12T03:54:53.525Z,8.10
2023-03-12T03:57:22.927Z,9.20
2023-03-12T03:59:53.661Z,9.43
2023-03-12T04:02:24.498Z,11.13
2023-03-12T04:04:54.382Z,11.23
2023-03-12T04:07:24.012Z,7.40
2023-03-12T04:09:53.391Z,6.97
2023-03-12T04:12:24.271Z,8.07
2023-03-12T04:14:55.247Z,9.47
2023-03-12T04:17:24.889Z,7.67
2023-03-12T04:19:54.515Z,7.80
2023-03-12T04:22:23.934Z,6.07
2023-03-12T04:24:53.590Z,6.40
2023-03-12T04:27:22.973Z,6.03
2023-03-12T04:29:53.776Z,5.93
2023-03-12T04:32:25.970Z,6.07
2023-03-12T04:34:55.329Z,6.67
2023-03-12T04:37:27.926Z,6.50
2023-03-12T04:39:57.471Z,7.37
2023-03-12T04:42:26.711Z,5.77
2023-03-12T04:44:57.454Z,5.93
2023-03-12T04:47:27.006Z,6.07
2023-03-12T04:49:56.183Z,5.20
2023-03-12T04:52:25.819Z,5.33
2023-03-12T04:54:55.283Z,5.33
2023-03-12T04:57:24.631Z,6.60
2023-03-12T04:59:56.911Z,7.10
2023-03-12T05:02:27.684Z,5.40
2023-03-12T05:05:04.688Z,5.43
2023-03-12T05:07:33.880Z,5.20
2023-03-12T05:10:03.421Z,4.83
2023-03-12T05:12:32.691Z,5.47
2023-03-12T05:15:02.121Z,6.43
2023-03-12T05:17:32.861Z,5.87
2023-03-12T05:20:01.988Z,6.53
2023-03-12T05:22:31.347Z,5.13
2023-03-12T05:25:00.919Z,5.13
2023-03-12T05:27:32.015Z,6.10
2023-03-12T05:30:01.451Z,5.10
2023-03-12T05:32:32.279Z,5.13
2023-03-12T05:35:01.675Z,4.80
2023-03-12T05:37:30.979Z,5.00
2023-03-12T05:40:04.323Z,5.30
2023-03-12T05:42:33.547Z,4.93
2023-03-12T05:45:03.071Z,4.53
2023-03-12T05:47:33.660Z,5.23
2023-03-12T05:50:02.868Z,4.43
2023-03-12T05:52:33.906Z,5.07
2023-03-12T05:55:50.889Z,4.80
2023-03-12T05:58:20.327Z,5.17
2023-03-12T06:00:49.687Z,5.37
2023-03-12T06:03:20.269Z,4.63
2023-03-12T06:05:49.488Z,5.50
2023-03-12T06:08:18.617Z,5.67
2023-03-12T06:10:47.553Z,4.40
2023-03-12T06:13:16.495Z,4.73
2023-03-12T06:15:45.455Z,4.72
2023-03-12T06:18:14.385Z,4.53
2023-03-12T06:20:45.094Z,4.60
2023-03-12T06:23:14.319Z,4.30
2023-03-12T06:25:46.345Z,5.55
2023-03-12T06:28:15.494Z,5.85
2023-03-12T06:30:44.441Z,5.43
2023-03-12T06:33:14.481Z,5.03
2023-03-12T06:35:45.737Z,4.90
2023-03-12T06:38:15.191Z,5.68
2023-03-12T06:40:44.511Z,6.78
2023-03-12T06:43:13.513Z,6.00
2023-03-12T06:45:42.616Z,6.00
2023-03-12T06:48:11.679Z,4.90
2023-03-12T06:50:40.607Z,5.70
2023-03-12T06:53:11.111Z,6.32
2023-03-12T06:55:40.028Z,6.13
2023-03-12T06:58:08.984Z,5.25
2023-03-12T07:00:37.989Z,5.78
2023-03-12T07:03:07.006Z,5.75
2023-03-12T07:05:35.981Z,5.15
2023-03-12T07:08:05.132Z,6.85
2023-03-12T07:10:35.547Z,6.65
2023-03-12T07:13:04.494Z,5.80
2023-03-12T07:15:33.769Z,7.25
2023-03-12T07:18:02.818Z,5.70
2023-03-12T07:20:31.826Z,5.50
2023-03-12T07:23:01.528Z,4.93
2023-03-12T07:25:30.467Z,5.03
2023-03-12T07:28:00.845Z,4.90
2023-03-12T07:30:33.526Z,3.00
2023-03-12T07:33:03.672Z,3.33
2023-03-12T07:35:33.018Z,3.35
2023-03-12T07:38:03.267Z,3.15
2023-03-12T07:40:32.648Z,4.75
2023-03-12T07:43:03.244Z,5.85
2023-03-12T07:45:32.520Z,4.05
2023-03-12T07:48:01.428Z,3.63
2023-03-12T07:50:30.355Z,2.72
2023-03-12T07:52:59.267Z,3.67
2023-03-12T07:55:28.141Z,2.55
2023-03-12T07:57:59.098Z,3.45
2023-03-12T08:00:31.164Z,2.88
2023-03-12T08:03:00.496Z,2.08
2023-03-12T08:05:29.465Z,3.35
2023-03-12T08:07:58.152Z,2.00
2023-03-12T08:10:27.197Z,1.95
2023-03-12T08:12:56.133Z,3.47
2023-03-12T08:15:25.415Z,2.45
2023-03-12T08:17:55.619Z,2.25
2023-03-12T08:20:24.413Z,1.80
2023-03-12T08:22:53.215Z,2.78
2023-03-12T08:25:24.590Z,1.92
2023-03-12T08:27:53.605Z,2.70
2023-03-12T08:30:22.585Z,2.47
2023-03-12T08:32:51.377Z,2.25
2023-03-12T08:35:21.629Z,4.75
2023-03-12T08:37:50.689Z,1.90
2023-03-12T08:40:19.917Z,3.00
2023-03-12T08:42:48.658Z,2.65
2023-03-12T08:45:17.933Z,4.03
2023-03-12T08:47:46.732Z,1.75
2023-03-12T08:50:17.256Z,3.35
2023-03-12T08:52:47.455Z,1.63
2023-03-12T08:55:16.518Z,1.50
2023-03-12T08:57:45.397Z,2.95
2023-03-12T09:00:18.018Z,1.95
2023-03-12T09:02:47.517Z,2.13
2023-03-12T09:05:16.566Z,1.83
2023-03-12T09:07:46.796Z,3.15
2023-03-12T09:10:15.531Z,2.38
2023-03-12T09:12:44.883Z,3.83
2023-03-12T09:15:14.057Z,1.98
2023-03-12T09:17:42.904Z,1.80
2023-03-12T09:20:14.573Z,2.67
2023-03-12T09:22:44.118Z,1.85
2023-03-12T09:25:14.656Z,3.78
2023-03-12T09:27:46.276Z,3.50
2023-03-12T09:30:18.311Z,1.73
2023-03-12T09:32:48.050Z,1.63
2023-03-12T09:35:18.198Z,2.58
2023-03-12T09:37:51.500Z,2.30
2023-03-12T09:40:25.089Z,2.17
2023-03-12T09:42:58.657Z,1.63
2023-03-12T09:45:32.171Z,1.35
2023-03-12T09:48:04.777Z,2.10
2023-03-12T09:50:40.149Z,1.40
2023-03-12T09:53:21.426Z,1.85
2023-03-12T09:55:57.092Z,1.65
2023-03-12T09:58:31.543Z,2.58
2023-03-12T10:01:11.579Z,2.40
2023-03-12T10:04:12.634Z,2.35
2023-03-12T10:06:53.526Z,2.28
2023-03-12T10:09:52.117Z,2.97
2023-03-12T10:12:37.163Z,2.90
2023-03-12T10:15:31.209Z,3.30
2023-03-12T10:18:19.954Z,1.40
2023-03-12T10:20:57.945Z,2.60
2023-03-12T10:23:47.807Z,2.83
2023-03-12T10:26:23.478Z,1.92
2023-03-12T10:29:01.572Z,2.38
2023-03-12T10:31:37.704Z,1.88
2023-03-12T10:34:20.192Z,1.70
2023-03-12T10:36:48.984Z,1.63
2023-03-12T10:39:21.402Z,2.40
2023-03-12T10:41:53.145Z,1.65
2023-03-12T10:44:26.371Z,1.13
2023-03-12T10:47:26.878Z,1.75
2023-03-12T10:49:56.146Z,1.48
2023-03-12T10:52:26.534Z,2.10
2023-03-12T10:54:55.589Z,1.38
2023-03-12T10:57:41.230Z,1.77
2023-03-12T11:00:20.979Z,1.17
2023-03-12T11:03:00.385Z,2.30
2023-03-12T11:05:33.206Z,2.28
2023-03-12T11:08:05.014Z,1.55
2023-03-12T11:10:45.138Z,1.75
2023-03-12T11:13:28.651Z,2.85
2023-03-12T11:16:00.962Z,1.70
2023-03-12T11:18:36.305Z,1.58
2023-03-12T11:21:19.196Z,1.70
2023-03-12T11:24:11.253Z,2.17
2023-03-12T11:27:05.377Z,1.42
2023-03-12T11:29:40.119Z,1.90
2023-03-12T11:32:18.736Z,1.90
2023-03-12T11:34:49.863Z,1.95
2023-03-12T11:37:32.694Z,1.63
2023-03-12T11:40:19.805Z,2.83
2023-03-12T11:43:06.004Z,1.65
2023-03-12T11:45:52.386Z,1.80
2023-03-12T11:48:34.896Z,1.80
2023-03-12T11:51:20.420Z,1.45
2023-03-12T11:54:13.233Z,1.70
2023-03-12T11:56:47.792Z,2.47
2023-03-12T11:59:49.378Z,3.28
2023-03-12T12:02:47.538Z,2.50
2023-03-12T12:05:33.287Z,1.80
2023-03-12T12:08:24.566Z,2.60
2023-03-12T12:11:07.113Z,1.42
2023-03-12T12:13:50.363Z,1.95
2023-03-12T12:16:42.123Z,1.70
2023-03-12T12:19:34.771Z,2.25
2023-03-12T12:22:36.059Z,2.78
2023-03-12T12:25:38.571Z,2.85
2023-03-12T12:28:58.090Z,1.88
2023-03-12T12:31:38.706Z,2.85
2023-03-12T12:34:42.566Z,7.65
2023-03-12T12:37:32.147Z,1.63
2023-03-12T12:40:17.384Z,2.92
2023-03-12T12:43:00.366Z,2.35
2023-03-12T12:45:31.254Z,1.88
2023-03-12T12:48:07.625Z,1.58
2023-03-12T12:50:41.146Z,3.03
2023-03-12T12:53:25.202Z,1.98
2023-03-12T12:56:14.868Z,3.17
2023-03-12T12:59:10.725Z,3.65
2023-03-12T13:01:40.745Z,4.68
2023-03-12T13:04:16.945Z,4.63
2023-03-12T13:07:03.733Z,3.03
2023-03-12T13:09:44.580Z,3.45
2023-03-12T13:12:22.572Z,3.75
2023-03-12T13:14:52.808Z,6.80
2023-03-12T13:17:32.059Z,3.58
2023-03-12T13:20:14.741Z,3.80
2023-03-12T13:23:02.341Z,2.38
2023-03-12T13:25:56.260Z,2.60
2023-03-12T13:28:42.037Z,3.65
2023-03-12T13:31:38.462Z,2.25
2023-03-12T13:34:46.261Z,2.70
2023-03-12T13:37:32.020Z,4.30
2023-03-12T13:40:10.722Z,2.72
2023-03-12T13:42:43.119Z,3.00
2023-03-12T13:45:31.140Z,3.95
2023-03-12T13:48:06.127Z,2.50
2023-03-12T13:50:42.986Z,4.15
2023-03-12T13:53:24.143Z,4.20
2023-03-12T13:56:05.204Z,2.63
2023-03-12T13:58:49.391Z,3.88
2023-03-12T14:01:23.749Z,3.17
2023-03-12T14:03:57.647Z,2.00
2023-03-12T14:06:30.416Z,2.58
2023-03-12T14:09:24.209Z,3.38
2023-03-12T14:12:06.884Z,3.08
2023-03-12T14:15:02.600Z,2.97
2023-03-12T14:17:34.873Z,3.17
2023-03-12T14:20:10.852Z,2.95
2023-03-12T14:22:44.889Z,3.03
2023-03-12T14:25:25.176Z,2.80
2023-03-12T14:27:54.234Z,2.33
2023-03-12T14:30:32.138Z,3.22
2023-03-12T14:33:04.708Z,3.67
2023-03-12T14:35:41.928Z,2.55
2023-03-12T14:38:19.499Z,3.42
2023-03-12T14:40:56.616Z,3.05
2023-03-12T14:43:28.477Z,10.63
2023-03-12T14:46:00.950Z,25.02
2023-03-12T14:48:34.890Z,9.95
2023-03-12T14:51:07.777Z,17.45
2023-03-12T14:53:39.697Z,12.23
2023-03-12T14:56:15.717Z,3.20
2023-03-12T14:58:47.220Z,9.38
2023-03-12T15:01:23.479Z,3.08
2023-03-12T15:03:57.080Z,3.67
2023-03-12T15:06:31.943Z,4.78
2023-03-12T15:09:04.409Z,3.67
2023-03-12T15:11:35.983Z,5.20
2023-03-12T15:14:11.056Z,4.13
2023-03-12T15:16:43.610Z,3.67
2023-03-12T15:19:15.246Z,3.15
2023-03-12T15:21:44.984Z,4.00
2023-03-12T15:24:15.820Z,3.72
2023-03-12T15:26:44.909Z,4.10
2023-03-12T15:29:27.906Z,5.82
2023-03-12T15:32:00.957Z,3.78
2023-03-12T15:34:36.322Z,2.92
2023-03-12T15:37:23.729Z,8.30
2023-03-12T15:39:55.144Z,9.82
2023-03-12T15:42:27.284Z,6.97
2023-03-12T15:44:58.734Z,5.40
2023-03-12T15:47:33.200Z,2.80
2023-03-12T15:50:09.025Z,2.97
2023-03-12T15:52:38.306Z,2.47
2023-03-12T15:55:27.108Z,3.65
2023-03-12T15:57:58.695Z,2.83
2023-03-12T16:00:30.989Z,2.70
2023-03-12T16:03:04.076Z,3.70
2023-03-12T16:05:35.031Z,2.97
2023-03-12T16:08:15.428Z,2.33
2023-03-12T16:10:44.500Z,2.72
2023-03-12T16:13:17.937Z,3.10
2023-03-12T16:15:48.014Z,3.92
2023-03-12T16:18:21.462Z,3.08
2023-03-12T16:20:53.035Z,3.33
2023-03-12T16:23:22.296Z,4.10
2023-03-12T16:25:55.859Z,4.30
2023-03-12T16:28:26.190Z,4.82
2023-03-12T16:30:55.360Z,3.67
2023-03-12T16:33:26.707Z,4.32
2023-03-12T16:35:56.185Z,2.90
2023-03-12T16:38:26.326Z,3.92
2023-03-12T16:40:55.789Z,2.63
2023-03-12T16:43:29.246Z,2.92
2023-03-12T16:45:58.944Z,3.28
2023-03-12T16:48:29.301Z,3.15
2023-03-12T16:51:00.019Z,3.30
2023-03-12T16:53:29.118Z,2.92
2023-03-12T16:56:01.931Z,3.20
2023-03-12T16:58:31.945Z,3.03
2023-03-12T17:01:01.389Z,3.72
2023-03-12T17:03:37.268Z,3.20
2023-03-12T17:06:14.245Z,3.17
2023-03-12T17:08:43.326Z,3.70
2023-03-12T17:11:19.307Z,15.20
2023-03-12T17:13:51.876Z,24.65
2023-03-12T17:16:20.850Z,18.08
2023-03-12T17:18:51.102Z,9.95
2023-03-12T17:21:21.219Z,5.20
2023-03-12T17:23:51.968Z,3.35
2023-03-12T17:26:21.533Z,3.53
2023-03-12T17:28:50.358Z,3.53
2023-03-12T17:31:19.397Z,3.80
2023-03-12T17:33:48.417Z,3.60
2023-03-12T17:36:18.804Z,3.72
2023-03-12T17:38:50.427Z,3.20
2023-03-12T17:41:26.512Z,3.28
2023-03-12T17:43:59.866Z,4.35
2023-03-12T17:46:29.568Z,4.45
2023-03-12T17:48:58.725Z,4.13
2023-03-12T17:51:29.431Z,4.57
2023-03-12T17:53:58.518Z,5.00
2023-03-12T17:56:27.667Z,6.30
2023-03-12T17:58:56.791Z,5.47
2023-03-12T18:01:26.096Z,8.25
2023-03-12T18:03:55.401Z,7.20
2023-03-12T18:06:24.387Z,9.13
2023-03-12T18:08:54.856Z,9.85
2023-03-12T18:11:23.852Z,7.80
2023-03-12T18:13:52.690Z,5.30
2023-03-12T18:16:21.765Z,3.70
2023-03-12T18:18:52.649Z,4.30
2023-03-12T18:21:22.194Z,5.95
2023-03-12T18:23:51.469Z,3.90
2023-03-12T18:26:22.089Z,4.22
2023-03-12T18:28:51.156Z,3.50
2023-03-12T18:31:20.259Z,3.80
2023-03-12T18:33:49.202Z,3.88
2023-03-12T18:36:18.283Z,4.60
2023-03-12T18:38:50.165Z,4.18
2023-03-12T18:41:20.695Z,21.13
2023-03-12T18:43:49.590Z,16.73
2023-03-12T18:46:19.171Z,15.63
2023-03-12T18:48:48.194Z,10.82
2023-03-12T18:51:17.494Z,9.57
2023-03-12T18:53:46.747Z,7.15
2023-03-12T18:56:16.580Z,5.53
2023-03-12T18:58:47.043Z,5.07
2023-03-12T19:01:16.118Z,6.25
2023-03-12T19:03:45.547Z,4.82
2023-03-12T19:06:16.977Z,4.70
2023-03-12T19:08:47.208Z,6.30
2023-03-12T19:11:17.962Z,4.97
2023-03-12T19:13:53.363Z,4.50
2023-03-12T19:16:23.634Z,5.25
2023-03-12T19:18:52.872Z,15.75
2023-03-12T19:21:22.096Z,5.97
2023-03-12T19:23:52.229Z,18.67
2023-03-12T19:26:21.067Z,15.95
2023-03-12T19:28:51.969Z,13.30
2023-03-12T19:31:21.057Z,5.55
2023-03-12T19:33:50.102Z,7.25
2023-03-12T19:36:19.046Z,5.50
2023-03-12T19:38:47.987Z,6.30
2023-03-12T19:41:17.522Z,6.68
2023-03-12T19:43:46.679Z,5.90
2023-03-12T19:46:17.007Z,4.90
2023-03-12T19:48:45.982Z,6.00
2023-03-12T19:51:14.876Z,6.40
2023-03-12T19:53:43.959Z,6.57
2023-03-12T19:56:12.921Z,7.32
2023-03-12T19:58:41.734Z,7.22
2023-03-12T20:01:10.657Z,5.88
2023-03-12T20:03:43.835Z,6.15
2023-03-12T20:06:14.244Z,5.82
2023-03-12T20:08:44.599Z,5.78
2023-03-12T20:11:13.501Z,5.75
2023-03-12T20:13:42.566Z,6.22
2023-03-12T20:16:13.347Z,5.50
2023-03-12T20:18:44.109Z,5.60
2023-03-12T20:21:14.780Z,7.35
2023-03-12T20:23:44.195Z,6.85
2023-03-12T20:26:13.203Z,5.65
2023-03-12T20:28:42.814Z,5.47
2023-03-12T20:31:14.716Z,7.40
2023-03-12T20:33:45.463Z,7.45
2023-03-12T20:36:16.143Z,6.90
2023-03-12T20:38:50.373Z,5.55
2023-03-12T20:41:19.872Z,8.93
2023-03-12T20:43:48.923Z,5.30
2023-03-12T20:46:19.192Z,6.25
2023-03-12T20:48:49.724Z,4.78
2023-03-12T20:51:19.013Z,5.50
2023-03-12T20:53:48.051Z,4.93
2023-03-12T20:56:17.076Z,4.95
2023-03-12T20:58:46.319Z,4.82
2023-03-12T21:01:15.448Z,5.03
2023-03-12T21:03:44.545Z,4.50
2023-03-12T21:06:15.002Z,5.20
2023-03-12T21:08:44.344Z,5.05
2023-03-12T21:11:13.507Z,5.70
2023-03-12T21:13:42.817Z,6.35
2023-03-12T21:16:12.320Z,6.78
2023-03-12T21:18:41.338Z,9.23
2023-03-12T21:21:10.981Z,8.40
2023-03-12T21:23:41.663Z,9.05
2023-03-12T21:26:12.553Z,8.70
2023-03-12T21:28:41.676Z,7.22
2023-03-12T21:31:14.289Z,7.70
2023-03-12T21:33:43.638Z,5.75
2023-03-12T21:36:15.331Z,13.80
2023-03-12T21:38:45.760Z,10.63
2023-03-12T21:41:17.149Z,7.38
2023-03-12T21:43:48.509Z,8.15
2023-03-12T21:46:20.138Z,6.75
2023-03-12T21:48:50.275Z,7.32
2023-03-12T21:51:19.736Z,5.18
2023-03-12T21:53:55.515Z,5.93
2023-03-12T21:56:28.170Z,5.13
2023-03-12T21:58:58.495Z,5.22
2023-03-12T22:01:27.618Z,5.50
2023-03-12T22:03:56.853Z,5.20
2023-03-12T22:06:25.993Z,5.30
2023-03-12T22:08:56.335Z,5.35
2023-03-12T22:11:25.334Z,5.60
2023-03-12T22:13:54.096Z,4.72
2023-03-12T22:16:22.989Z,5.25
2023-03-12T22:18:52.102Z,4.65
2023-03-12T22:21:22.912Z,4.93
2023-03-12T22:23:54.266Z,4.50
2023-03-12T22:26:26.725Z,4.93
2023-03-12T22:28:58.244Z,4.75
2023-03-12T22:31:29.985Z,4.80
2023-03-12T22:33:59.313Z,5.70
2023-03-12T22:36:28.516Z,4.20
2023-03-12T22:38:58.050Z,5.32
2023-03-12T22:41:30.670Z,5.20
2023-03-12T22:44:05.136Z,5.28
2023-03-12T22:46:34.903Z,4.70
2023-03-12T22:49:06.136Z,4.63
2023-03-12T22:51:35.371Z,4.70
2023-03-12T22:54:04.657Z,4.90
2023-03-12T22:56:35.196Z,4.53
2023-03-12T22:59:04.306Z,5.28
2023-03-12T23:01:33.154Z,4.43
2023-03-12T23:04:04.154Z,4.75
2023-03-12T23:06:34.063Z,5.83
2023-03-12T23:09:03.355Z,4.57
2023-03-12T23:11:33.615Z,4.53
2023-03-12T23:14:02.478Z,4.82
2023-03-12T23:16:31.404Z,4.40
2023-03-12T23:19:01.246Z,4.63
2023-03-12T23:21:30.090Z,5.35
2023-03-12T23:24:01.022Z,5.00
2023-03-12T23:26:30.523Z,5.50
2023-03-12T23:29:03.149Z,4.95
2023-03-12T23:31:32.362Z,5.22
2023-03-12T23:34:01.122Z,5.70
2023-03-12T23:36:30.186Z,5.25
2023-03-12T23:38:59.330Z,6.00
2023-03-12T23:41:30.539Z,5.35
2023-03-12T23:44:00.266Z,6.03
2023-03-12T23:46:30.713Z,5.57
2023-03-12T23:48:59.879Z,5.47
2023-03-12T23:51:32.446Z,5.60
2023-03-12T23:54:05.565Z,6.00
2023-03-12T23:56:37.301Z,6.18
2023-03-12T23:59:08.500Z,5.57
